Time;durP1;ratioP1;P1;durP2;ratioP2;P2;SDS_P1;SDS_P2;PMS_P1;PMS_P2;Temp;Humidity;BMP_temperature;BMP_pressure;BME280_temperature;BME280_humidity;BME280_pressure;Samples;Min_cycle;Max_cycle;Signal;HPM_P1;HPM_P2
2021/08/01 00:01:24;;;;;;;8.63;7.73;;;16.90;99.90;;;;;;5049996;28;20483;-68
2021/08/01 00:03:51;;;;;;;8.20;6.70;;;16.80;99.90;;;;;;5048863;28;21141;-69
2021/08/01 00:06:19;;;;;;;8.90;7.07;;;16.70;99.90;;;;;;5050469;28;20535;-69
2021/08/01 00:08:46;;;;;;;10.50;7.10;;;16.50;99.90;;;;;;5049867;28;21015;-69
2021/08/01 00:11:13;;;;;;;11.50;6.93;;;16.50;99.90;;;;;;5051476;28;21074;-70
2021/08/01 00:13:42;;;;;;;10.40;7.20;;;16.40;99.90;;;;;;5051647;28;20523;-70
2021/08/01 00:16:09;;;;;;;13.17;6.83;;;16.30;99.90;;;;;;5051716;28;20858;-71
2021/08/01 00:18:36;;;;;;;8.30;6.80;;;16.30;99.90;;;;;;5051455;28;20570;-70
2021/08/01 00:21:03;;;;;;;9.40;6.73;;;16.20;99.90;;;;;;5051029;28;20487;-70
2021/08/01 00:23:30;;;;;;;9.17;7.30;;;16.10;99.90;;;;;;5051278;28;20443;-70
2021/08/01 00:25:57;;;;;;;11.17;7.73;;;16.10;99.90;;;;;;5051350;28;20452;-69
2021/08/01 00:28:24;;;;;;;11.17;8.23;;;16.00;99.90;;;;;;5050908;28;20468;-70
2021/08/01 00:30:53;;;;;;;11.40;9.70;;;16.00;99.90;;;;;;5050532;28;21067;-70
2021/08/01 00:33:20;;;;;;;12.87;9.80;;;16.10;99.90;;;;;;5050838;28;21030;-70
2021/08/01 00:35:47;;;;;;;12.50;10.37;;;16.10;99.90;;;;;;5051010;28;20487;-70
2021/08/01 00:38:13;;;;;;;13.47;9.70;;;16.10;99.90;;;;;;5050995;28;20547;-70
2021/08/01 00:40:40;;;;;;;11.80;10.60;;;16.20;99.90;;;;;;5049871;28;20567;-70
2021/08/01 00:43:07;;;;;;;11.67;9.27;;;16.20;99.90;;;;;;5050745;28;20531;-69
2021/08/01 00:45:37;;;;;;;14.20;9.73;;;16.10;99.90;;;;;;5050532;28;20460;-71
2021/08/01 00:48:09;;;;;;;12.70;10.40;;;16.10;99.90;;;;;;5050838;28;20472;-70
2021/08/01 00:50:36;;;;;;;12.60;11.20;;;16.20;99.90;;;;;;5050476;28;20438;-70
2021/08/01 00:53:03;;;;;;;12.30;10.20;;;16.30;99.90;;;;;;5050556;28;20446;-70
2021/08/01 00:55:30;;;;;;;11.27;9.83;;;16.30;99.90;;;;;;5050838;28;20454;-71
2021/08/01 00:57:57;;;;;;;11.17;9.93;;;16.40;99.90;;;;;;5050801;28;20444;-70
2021/08/01 01:03:14;;;;;;;9.90;8.00;;;16.20;99.90;;;;;;5047788;28;20439;-70
2021/08/01 01:05:48;;;;;;;12.87;9.03;;;16.10;99.90;;;;;;5050077;28;20482;-70
2021/08/01 01:08:23;;;;;;;12.53;10.40;;;16.20;99.90;;;;;;5050208;28;20464;-71
2021/08/01 01:10:55;;;;;;;10.97;9.40;;;16.20;99.90;;;;;;5050055;28;20431;-69
2021/08/01 01:13:27;;;;;;;13.00;9.67;;;16.20;99.90;;;;;;5050196;28;21027;-70
2021/08/01 01:15:56;;;;;;;11.13;9.37;;;16.10;99.90;;;;;;5049519;28;20450;-70
2021/08/01 01:18:28;;;;;;;10.20;8.53;;;16.10;99.90;;;;;;5050436;28;20579;-70
2021/08/01 01:21:36;;;;;;;11.20;9.00;;;16.10;99.90;;;;;;5049869;28;20484;-71
2021/08/01 01:24:07;;;;;;;10.33;9.00;;;16.10;99.90;;;;;;5013015;28;20452;-70
2021/08/01 01:26:38;;;;;;;9.33;8.40;;;16.10;99.90;;;;;;5050062;28;20448;-70
2021/08/01 01:29:16;;;;;;;13.13;10.00;;;16.10;99.90;;;;;;5049643;28;20472;-70
2021/08/01 01:31:57;;;;;;;12.70;10.90;;;16.00;99.90;;;;;;5050200;28;20515;-71
2021/08/01 01:34:42;;;;;;;13.03;10.87;;;16.10;99.90;;;;;;5049857;28;20444;-71
2021/08/01 01:37:14;;;;;;;12.60;10.83;;;16.10;99.90;;;;;;5050004;28;20526;-70
2021/08/01 01:39:42;;;;;;;14.47;11.67;;;16.20;99.90;;;;;;5049664;28;20514;-71
2021/08/01 01:42:12;;;;;;;13.13;9.83;;;16.20;99.90;;;;;;5050202;28;20444;-70
2021/08/01 01:44:40;;;;;;;12.80;10.97;;;16.30;99.90;;;;;;5050084;28;20527;-71
2021/08/01 01:47:08;;;;;;;12.70;11.23;;;16.30;99.90;;;;;;5050274;28;20477;-71
2021/08/01 01:49:37;;;;;;;14.23;11.27;;;16.30;99.90;;;;;;5049556;28;20546;-70
2021/08/01 01:52:05;;;;;;;15.20;10.60;;;16.40;99.90;;;;;;5050323;28;20458;-70
2021/08/01 01:54:35;;;;;;;9.93;8.93;;;16.30;99.90;;;;;;5049740;28;20942;-70
2021/08/01 01:57:03;;;;;;;13.50;9.83;;;16.30;99.90;;;;;;5050198;28;20487;-70
2021/08/01 01:59:31;;;;;;;12.50;9.70;;;16.30;99.90;;;;;;5049441;28;20468;-69
2021/08/01 02:01:57;;;;;;;12.73;9.40;;;16.20;99.90;;;;;;5049629;28;20454;-70
2021/08/01 02:04:24;;;;;;;29.57;12.60;;;16.20;99.90;;;;;;5049658;28;20523;-70
2021/08/01 02:06:51;;;;;;;12.57;10.63;;;16.20;99.90;;;;;;5050008;28;21090;-70
2021/08/01 02:09:25;;;;;;;15.20;10.20;;;16.20;99.90;;;;;;5049461;28;20562;-70
2021/08/01 02:11:59;;;;;;;15.50;10.67;;;16.20;99.90;;;;;;5049977;28;20444;-71
2021/08/01 02:14:32;;;;;;;12.67;10.93;;;16.20;99.90;;;;;;5049986;28;20443;-71
2021/08/01 02:17:06;;;;;;;14.30;9.07;;;16.20;99.90;;;;;;5049750;28;20451;-70
2021/08/01 02:19:36;;;;;;;10.20;8.77;;;16.20;99.90;;;;;;5049292;28;20467;-70
2021/08/01 02:22:04;;;;;;;15.03;10.60;;;16.10;99.90;;;;;;5049717;28;20448;-70
2021/08/01 02:24:32;;;;;;;13.80;11.23;;;16.10;99.90;;;;;;5049381;28;20444;-70
2021/08/01 02:27:02;;;;;;;12.47;9.50;;;16.00;99.90;;;;;;5050059;28;20771;-70
2021/08/01 02:29:31;;;;;;;10.63;9.07;;;16.00;99.90;;;;;;5053326;28;20845;-70
2021/08/01 02:31:59;;;;;;;12.17;8.57;;;16.00;99.90;;;;;;5053181;28;20448;-70
2021/08/01 02:34:27;;;;;;;13.50;10.93;;;16.00;99.90;;;;;;5053198;28;20526;-70
2021/08/01 02:36:55;;;;;;;11.87;9.63;;;15.90;99.90;;;;;;5052985;28;20534;-71
2021/08/01 02:39:23;;;;;;;13.57;9.70;;;15.90;99.90;;;;;;5052682;28;20617;-70
2021/08/01 02:41:53;;;;;;;13.17;10.67;;;16.00;99.90;;;;;;5053194;28;20450;-70
2021/08/01 02:44:27;;;;;;;13.27;11.20;;;15.90;99.90;;;;;;5053142;28;20448;-71
2021/08/01 02:46:54;;;;;;;11.37;10.03;;;15.90;99.90;;;;;;5053202;28;20448;-70
2021/08/01 02:49:23;;;;;;;13.60;9.03;;;15.90;99.90;;;;;;5052785;28;20470;-72
2021/08/01 02:51:53;;;;;;;13.73;10.27;;;15.90;99.90;;;;;;5052891;28;20538;-71
2021/08/01 02:54:21;;;;;;;11.27;10.07;;;15.80;99.90;;;;;;5053019;28;21204;-71
2021/08/01 02:56:50;;;;;;;11.87;9.73;;;15.90;99.90;;;;;;5053675;28;20440;-71
2021/08/01 02:59:19;;;;;;;12.97;10.10;;;15.80;99.90;;;;;;5053032;28;20889;-71
2021/08/01 03:01:48;;;;;;;12.63;9.73;;;15.80;99.90;;;;;;5053502;28;20850;-70
2021/08/01 03:04:15;;;;;;;12.20;9.70;;;15.80;99.90;;;;;;5053805;28;20555;-71
2021/08/01 03:06:43;;;;;;;12.23;10.43;;;15.90;99.90;;;;;;5053512;28;20454;-71
2021/08/01 03:09:11;;;;;;;13.73;11.03;;;15.80;99.90;;;;;;5052924;28;20471;-71
2021/08/01 03:11:38;;;;;;;14.73;10.77;;;15.90;99.90;;;;;;5052834;28;20437;-71
2021/08/01 03:14:05;;;;;;;12.17;10.43;;;15.90;99.90;;;;;;5052461;28;20534;-70
2021/08/01 03:16:32;;;;;;;14.50;10.73;;;15.90;99.90;;;;;;5052407;28;20834;-71
2021/08/01 03:19:01;;;;;;;21.90;12.57;;;15.90;99.90;;;;;;5051461;28;20486;-71
2021/08/01 03:21:27;;;;;;;12.87;10.57;;;15.90;99.90;;;;;;5052196;28;20582;-72
2021/08/01 03:23:54;;;;;;;11.13;9.27;;;15.90;99.90;;;;;;5052168;28;20539;-70
2021/08/01 03:26:21;;;;;;;11.73;10.53;;;15.90;99.90;;;;;;5052320;28;20538;-71
2021/08/01 03:28:48;;;;;;;12.60;11.30;;;15.90;99.90;;;;;;5052174;28;20519;-71
2021/08/01 03:31:15;;;;;;;11.40;9.60;;;15.80;99.90;;;;;;5051725;28;20519;-70
2021/08/01 03:33:42;;;;;;;14.53;10.17;;;15.80;99.90;;;;;;5052010;28;20435;-71
2021/08/01 03:36:10;;;;;;;14.33;9.10;;;15.80;99.90;;;;;;5052263;28;20460;-71
2021/08/01 03:38:37;;;;;;;10.90;9.70;;;15.80;99.90;;;;;;5051274;28;20468;-70
2021/08/01 03:41:04;;;;;;;12.67;9.97;;;15.80;99.90;;;;;;5051431;28;20479;-71
2021/08/01 03:43:31;;;;;;;11.63;9.60;;;15.70;99.90;;;;;;5051748;28;20456;-71
2021/08/01 03:45:57;;;;;;;13.70;10.07;;;15.70;99.90;;;;;;5051537;28;20538;-71
2021/08/01 03:48:24;;;;;;;11.47;9.10;;;15.70;99.90;;;;;;5051367;28;20555;-70
2021/08/01 03:50:52;;;;;;;11.50;9.30;;;15.80;99.90;;;;;;5051560;28;20507;-70
2021/08/01 03:53:20;;;;;;;11.83;9.30;;;15.70;99.90;;;;;;5051772;28;20472;-72
2021/08/01 03:55:47;;;;;;;13.10;9.87;;;15.70;99.90;;;;;;5051820;28;20440;-70
2021/08/01 03:58:13;;;;;;;15.80;9.90;;;15.70;99.90;;;;;;5051860;28;20543;-70
2021/08/01 04:00:46;;;;;;;12.17;10.97;;;15.70;99.90;;;;;;5051337;28;21032;-70
2021/08/01 04:03:13;;;;;;;13.57;10.83;;;15.70;99.90;;;;;;5051676;28;20539;-70
2021/08/01 04:05:40;;;;;;;13.43;10.83;;;15.70;99.90;;;;;;5051766;28;20570;-70
2021/08/01 04:08:07;;;;;;;15.30;11.47;;;15.70;99.90;;;;;;5051209;28;20959;-72
2021/08/01 04:10:35;;;;;;;16.10;10.90;;;15.70;99.90;;;;;;5051217;28;20531;-70
2021/08/01 04:13:02;;;;;;;14.07;9.87;;;15.70;99.90;;;;;;5050931;28;20440;-70
2021/08/01 04:15:29;;;;;;;31.90;15.00;;;15.70;99.90;;;;;;5051699;28;20448;-72
2021/08/01 04:17:56;;;;;;;17.80;11.97;;;15.80;99.90;;;;;;5050988;28;20993;-69
2021/08/01 04:20:24;;;;;;;13.63;10.30;;;15.80;99.90;;;;;;5051012;28;20484;-71
2021/08/01 04:22:52;;;;;;;12.77;10.93;;;15.80;99.90;;;;;;5051068;28;20942;-70
2021/08/01 04:25:20;;;;;;;13.97;10.63;;;15.80;99.90;;;;;;5051146;28;20440;-71
2021/08/01 04:27:48;;;;;;;13.20;11.80;;;15.80;99.90;;;;;;5051493;28;20543;-70
2021/08/01 04:30:16;;;;;;;15.90;11.07;;;15.80;99.90;;;;;;5050912;28;20530;-71
2021/08/01 04:32:43;;;;;;;19.60;12.93;;;15.80;99.90;;;;;;5051344;28;20527;-70
2021/08/01 04:35:10;;;;;;;13.50;11.13;;;15.80;99.90;;;;;;5050933;28;20442;-71
2021/08/01 04:37:37;;;;;;;11.60;9.90;;;15.80;99.90;;;;;;5051293;28;20444;-70
2021/08/01 04:40:06;;;;;;;10.83;9.70;;;15.70;99.90;;;;;;5050321;28;20476;-71
2021/08/01 04:42:33;;;;;;;11.83;10.50;;;15.70;99.90;;;;;;5050888;28;20502;-71
2021/08/01 04:45:02;;;;;;;13.50;11.60;;;15.70;99.90;;;;;;5050725;28;21009;-71
2021/08/01 04:47:29;;;;;;;17.40;11.50;;;15.70;99.90;;;;;;5050925;28;20546;-70
2021/08/01 04:49:56;;;;;;;13.37;10.63;;;15.70;99.90;;;;;;5049924;28;20499;-71
2021/08/01 04:52:23;;;;;;;11.80;10.60;;;15.80;99.90;;;;;;5050771;28;20547;-70
2021/08/01 04:54:50;;;;;;;61.00;18.77;;;15.80;99.90;;;;;;5050615;28;20472;-70
2021/08/01 04:57:17;;;;;;;12.10;10.80;;;15.80;99.90;;;;;;5050640;28;20535;-71
2021/08/01 04:59:44;;;;;;;12.33;10.23;;;15.80;99.90;;;;;;5050363;28;20482;-71
2021/08/01 05:02:12;;;;;;;11.73;10.47;;;15.80;99.90;;;;;;5050629;28;20475;-71
2021/08/01 05:04:39;;;;;;;10.77;9.60;;;15.80;99.90;;;;;;5050691;28;20547;-70
2021/08/01 05:07:06;;;;;;;11.30;10.10;;;15.80;99.90;;;;;;5050583;28;20450;-71
2021/08/01 05:09:33;;;;;;;88.60;20.50;;;15.80;99.90;;;;;;5050179;28;20914;-71
2021/08/01 05:11:59;;;;;;;12.70;10.57;;;15.80;99.90;;;;;;5050356;28;20526;-71
2021/08/01 05:14:27;;;;;;;13.50;10.37;;;15.80;99.90;;;;;;5050576;28;21039;-70
2021/08/01 05:16:53;;;;;;;12.03;10.50;;;15.80;99.90;;;;;;5050415;28;20531;-70
2021/08/01 05:19:22;;;;;;;11.83;9.50;;;15.80;99.90;;;;;;5049788;28;21237;-71
2021/08/01 05:21:49;;;;;;;10.90;9.27;;;15.90;99.90;;;;;;5050232;28;20595;-71
2021/08/01 05:24:16;;;;;;;13.90;10.33;;;15.90;99.90;;;;;;5050742;28;20452;-70
2021/08/01 05:26:44;;;;;;;11.37;10.23;;;15.90;99.90;;;;;;5050485;28;20444;-71
2021/08/01 05:29:11;;;;;;;12.80;10.43;;;16.00;99.90;;;;;;5050358;28;20999;-71
2021/08/01 05:31:38;;;;;;;15.90;11.50;;;16.00;99.90;;;;;;5050131;28;20451;-70
2021/08/01 05:34:04;;;;;;;40.20;15.73;;;16.00;99.90;;;;;;5050152;28;20607;-70
2021/08/01 05:36:33;;;;;;;13.03;11.57;;;16.00;99.90;;;;;;5050026;28;20542;-71
2021/08/01 05:38:59;;;;;;;12.50;10.87;;;16.00;99.90;;;;;;5049819;28;20527;-71
2021/08/01 05:41:26;;;;;;;13.20;10.27;;;16.10;99.90;;;;;;5049953;28;20852;-70
2021/08/01 05:43:53;;;;;;;12.63;10.43;;;16.20;99.90;;;;;;5049935;28;20515;-71
2021/08/01 05:46:20;;;;;;;13.00;10.53;;;16.20;99.90;;;;;;5050371;28;20555;-71
2021/08/01 05:48:47;;;;;;;14.50;10.00;;;16.30;99.90;;;;;;5050034;28;20499;-70
2021/08/01 05:51:14;;;;;;;10.63;9.13;;;16.40;99.90;;;;;;5049958;28;20449;-70
2021/08/01 05:53:42;;;;;;;10.60;8.70;;;16.30;99.90;;;;;;5050151;28;20527;-70
2021/08/01 05:56:11;;;;;;;10.83;9.73;;;16.30;99.90;;;;;;5049995;28;20452;-71
2021/08/01 05:58:38;;;;;;;16.43;10.30;;;16.40;99.90;;;;;;5049437;28;21077;-71
2021/08/01 06:01:09;;;;;;;9.47;8.47;;;16.40;99.90;;;;;;5049316;28;20903;-71
2021/08/01 06:03:36;;;;;;;14.20;9.87;;;16.50;99.90;;;;;;5053167;28;20526;-72
2021/08/01 06:06:11;;;;;;;9.70;8.67;;;16.60;99.90;;;;;;5054255;28;20528;-70
2021/08/01 06:08:38;;;;;;;26.47;11.47;;;16.60;99.90;;;;;;5053631;28;20455;-70
2021/08/01 06:11:06;;;;;;;10.27;9.27;;;16.60;99.90;;;;;;5053198;28;20438;-71
2021/08/01 06:13:33;;;;;;;16.63;8.80;;;16.80;99.90;;;;;;5053464;28;20450;-71
2021/08/01 06:16:00;;;;;;;9.33;8.37;;;16.80;99.90;;;;;;5053314;28;20922;-70
2021/08/01 06:18:27;;;;;;;20.37;9.63;;;16.80;99.90;;;;;;5053433;28;20816;-71
2021/08/01 06:21:03;;;;;;;9.23;8.33;;;16.90;99.90;;;;;;5052771;28;20488;-71
2021/08/01 06:23:30;;;;;;;10.27;7.80;;;16.90;99.90;;;;;;5053458;28;20526;-71
2021/08/01 06:25:57;;;;;;;10.23;8.53;;;16.80;99.90;;;;;;5053217;28;20444;-70
2021/08/01 06:28:25;;;;;;;10.70;9.53;;;16.70;99.90;;;;;;5053273;28;20552;-70
2021/08/01 06:30:53;;;;;;;11.20;9.53;;;16.60;99.90;;;;;;5052927;28;20439;-70
2021/08/01 06:33:20;;;;;;;18.30;11.50;;;16.60;99.90;;;;;;5053300;28;20440;-71
2021/08/01 06:35:46;;;;;;;12.17;9.00;;;16.60;99.90;;;;;;5053060;28;20547;-71
2021/08/01 06:38:13;;;;;;;11.00;9.60;;;16.70;99.90;;;;;;5053594;28;20591;-71
2021/08/01 06:40:40;;;;;;;11.20;8.77;;;16.70;99.90;;;;;;5052402;28;20531;-70
2021/08/01 06:43:07;;;;;;;9.30;8.27;;;16.80;99.90;;;;;;5052541;28;21014;-71
2021/08/01 06:45:36;;;;;;;17.63;10.37;;;16.80;99.90;;;;;;5052842;28;20446;-70
2021/08/01 06:48:04;;;;;;;9.57;8.50;;;16.90;99.90;;;;;;5052595;28;20531;-70
2021/08/01 06:50:31;;;;;;;9.43;8.40;;;17.00;99.90;;;;;;5052356;28;20447;-71
2021/08/01 06:52:58;;;;;;;10.27;8.90;;;17.00;99.90;;;;;;5052521;28;20427;-70
2021/08/01 06:55:25;;;;;;;15.40;12.90;;;17.10;99.90;;;;;;5052491;28;21196;-70
2021/08/01 06:57:52;;;;;;;12.37;9.00;;;17.10;99.90;;;;;;5052539;28;20442;-70
2021/08/01 07:00:21;;;;;;;10.33;9.33;;;17.10;99.90;;;;;;5052168;28;20535;-72
2021/08/01 07:02:53;;;;;;;10.60;9.50;;;17.40;99.90;;;;;;5052084;28;21028;-70
2021/08/01 07:05:21;;;;;;;10.67;8.60;;;17.60;99.90;;;;;;5052671;28;20440;-71
2021/08/01 07:07:48;;;;;;;12.90;9.90;;;17.80;99.90;;;;;;5051864;28;20452;-72
2021/08/01 07:10:16;;;;;;;11.00;8.37;;;18.00;99.90;;;;;;5051995;28;20535;-72
2021/08/01 07:12:43;;;;;;;8.47;7.27;;;18.00;99.90;;;;;;5052818;28;20550;-71
2021/08/01 07:15:11;;;;;;;8.23;7.40;;;17.90;99.90;;;;;;5052418;28;20454;-70
2021/08/01 07:17:38;;;;;;;7.87;7.17;;;17.90;99.90;;;;;;5052103;28;20820;-71
2021/08/01 07:20:09;;;;;;;7.63;6.50;;;17.80;99.90;;;;;;5051424;28;21175;-70
2021/08/01 07:22:36;;;;;;;12.13;7.87;;;17.70;99.90;;;;;;5051807;28;21030;-71
2021/08/01 07:25:03;;;;;;;8.13;6.73;;;17.80;99.90;;;;;;5051722;28;20990;-70
2021/08/01 07:27:30;;;;;;;7.97;6.93;;;17.80;99.90;;;;;;5051777;28;20531;-70
2021/08/01 07:29:56;;;;;;;8.77;7.87;;;17.70;99.90;;;;;;5051539;28;20466;-70
2021/08/01 07:32:24;;;;;;;8.70;6.37;;;17.50;99.90;;;;;;5053146;28;20432;-69
2021/08/01 07:34:51;;;;;;;7.40;6.47;;;17.30;99.90;;;;;;5051764;28;20444;-71
2021/08/01 07:37:19;;;;;;;8.63;7.80;;;17.10;99.90;;;;;;5052416;28;20448;-71
2021/08/01 07:39:46;;;;;;;8.40;7.17;;;17.00;99.90;;;;;;5051500;28;20879;-71
2021/08/01 07:42:14;;;;;;;10.73;8.30;;;16.90;99.90;;;;;;5051752;28;21037;-70
2021/08/01 07:44:48;;;;;;;9.27;8.00;;;16.90;99.90;;;;;;5051860;28;20466;-70
2021/08/01 07:47:16;;;;;;;15.40;8.90;;;17.00;99.90;;;;;;5051475;28;20453;-70
2021/08/01 07:49:43;;;;;;;9.87;8.53;;;17.00;99.90;;;;;;5051146;28;21010;-72
2021/08/01 07:52:10;;;;;;;10.17;8.90;;;17.10;99.90;;;;;;5051547;28;20818;-70
2021/08/01 07:54:39;;;;;;;10.40;9.40;;;17.10;99.90;;;;;;5051426;28;21157;-70
2021/08/01 07:57:06;;;;;;;12.73;8.27;;;17.10;99.90;;;;;;5051293;28;20881;-70
2021/08/01 07:59:34;;;;;;;11.20;7.03;;;17.20;99.90;;;;;;5050989;28;20551;-72
2021/08/01 08:02:00;;;;;;;10.77;9.05;;;17.10;99.90;;;;;;5050414;28;20495;-70
2021/08/01 08:04:27;;;;;;;11.90;8.67;;;17.20;99.90;;;;;;5051875;28;20208;-71
2021/08/01 08:06:54;;;;;;;8.67;7.43;;;17.30;99.90;;;;;;5051177;28;20543;-71
2021/08/01 08:09:26;;;;;;;8.77;7.37;;;17.40;99.90;;;;;;5051201;28;20746;-71
2021/08/01 08:11:54;;;;;;;7.13;6.43;;;17.50;99.90;;;;;;5051262;28;20444;-70
2021/08/01 08:14:21;;;;;;;9.43;7.63;;;17.50;99.90;;;;;;5051269;28;20445;-71
2021/08/01 08:16:48;;;;;;;7.03;6.33;;;17.50;99.90;;;;;;5051241;28;20450;-71
2021/08/01 08:19:15;;;;;;;12.13;8.83;;;17.60;99.90;;;;;;5050384;28;20503;-71
2021/08/01 08:21:42;;;;;;;8.80;7.30;;;17.70;99.90;;;;;;5051029;28;20479;-71
2021/08/01 08:24:09;;;;;;;7.13;6.00;;;18.00;99.90;;;;;;5050885;28;20459;-71
2021/08/01 08:26:36;;;;;;;7.87;6.17;;;18.30;99.90;;;;;;5050853;28;20523;-71
2021/08/01 08:29:04;;;;;;;8.47;6.30;;;18.50;99.90;;;;;;5050730;28;20551;-71
2021/08/01 08:31:31;;;;;;;11.50;6.27;;;18.50;99.90;;;;;;5051310;28;20450;-71
2021/08/01 08:33:58;;;;;;;7.03;6.33;;;18.60;99.90;;;;;;5051205;28;20458;-71
2021/08/01 08:36:25;;;;;;;6.67;5.57;;;18.70;99.90;;;;;;5050839;28;20960;-70
2021/08/01 08:38:52;;;;;;;7.80;6.60;;;18.90;99.90;;;;;;5050491;28;20468;-70
2021/08/01 08:41:21;;;;;;;6.40;5.77;;;19.10;99.90;;;;;;5050437;28;21201;-70
2021/08/01 08:43:48;;;;;;;9.00;7.10;;;19.20;99.90;;;;;;5050265;28;20949;-69
2021/08/01 08:46:20;;;;;;;7.67;6.33;;;19.20;99.90;;;;;;5051016;28;20450;-70
2021/08/01 08:48:47;;;;;;;6.03;4.90;;;19.40;99.90;;;;;;5050850;28;20456;-70
2021/08/01 08:51:14;;;;;;;7.90;6.23;;;19.40;99.90;;;;;;5050337;28;21055;-73
2021/08/01 08:53:45;;;;;;;8.43;6.17;;;19.50;99.90;;;;;;5050525;28;20902;-72
2021/08/01 08:56:15;;;;;;;6.80;5.47;;;19.60;99.90;;;;;;5050459;28;20934;-73
2021/08/01 08:58:43;;;;;;;6.23;5.63;;;19.80;99.90;;;;;;5050592;28;20551;-72
2021/08/01 09:01:10;;;;;;;5.70;5.20;;;20.00;99.90;;;;;;5049918;28;20444;-73
2021/08/01 09:03:39;;;;;;;7.13;5.80;;;20.00;99.90;;;;;;5050387;28;20542;-71
2021/08/01 09:06:05;;;;;;;6.50;4.90;;;20.30;99.90;;;;;;5049990;28;20893;-71
2021/08/01 09:08:32;;;;;;;7.07;5.30;;;20.50;99.90;;;;;;5049961;28;20500;-71
2021/08/01 09:11:00;;;;;;;6.47;5.63;;;20.40;99.90;;;;;;5049640;28;20535;-71
2021/08/01 09:13:47;;;;;;;5.80;5.17;;;20.50;99.90;;;;;;5050354;28;20472;-70
2021/08/01 09:16:15;;;;;;;5.50;4.53;;;20.60;99.90;;;;;;5049829;28;20451;-70
2021/08/01 09:18:44;;;;;;;6.30;5.30;;;20.90;99.90;;;;;;5049793;28;20548;-70
2021/08/01 09:21:30;;;;;;;8.73;5.43;;;20.80;99.90;;;;;;5049538;28;20823;-71
2021/08/01 09:23:57;;;;;;;5.10;4.43;;;21.20;99.90;;;;;;5050125;28;20432;-72
2021/08/01 09:26:23;;;;;;;6.63;5.17;;;21.30;99.90;;;;;;5050221;28;20439;-71
2021/08/01 09:29:05;;;;;;;7.07;5.13;;;21.40;99.90;;;;;;5049915;28;20476;-71
2021/08/01 09:31:31;;;;;;;6.73;4.77;;;21.20;99.90;;;;;;5049842;28;20971;-72
2021/08/01 09:34:00;;;;;;;8.73;4.10;;;21.30;99.90;;;;;;5049849;28;20443;-71
2021/08/01 09:36:27;;;;;;;5.70;4.37;;;21.20;99.90;;;;;;5049390;28;20531;-71
2021/08/01 09:38:56;;;;;;;5.00;4.37;;;21.10;99.90;;;;;;5049413;28;21295;-71
2021/08/01 09:41:25;;;;;;;7.30;5.00;;;20.90;99.90;;;;;;5049733;28;21009;-71
2021/08/01 09:43:55;;;;;;;7.47;4.70;;;20.80;99.90;;;;;;5038435;28;20490;-71
2021/08/01 09:46:23;;;;;;;8.00;4.63;;;20.60;99.90;;;;;;5043243;28;20454;-71
2021/08/01 09:49:11;;;;;;;5.70;4.07;;;20.30;99.90;;;;;;5034982;28;20549;-71
2021/08/01 09:51:39;;;;;;;5.67;4.60;;;20.00;99.90;;;;;;5032317;28;20441;-70
2021/08/01 09:54:06;;;;;;;5.63;5.10;;;19.70;99.90;;;;;;5039834;28;20454;-71
2021/08/01 09:56:33;;;;;;;5.70;5.10;;;19.40;99.90;;;;;;5040907;28;20442;-71
2021/08/01 09:59:01;;;;;;;7.40;5.60;;;19.00;99.90;;;;;;5041722;28;20828;-71
2021/08/01 10:01:28;;;;;;;6.47;5.60;;;18.70;99.90;;;;;;5039957;28;20462;-69
2021/08/01 10:03:55;;;;;;;8.10;6.00;;;18.50;99.90;;;;;;5054655;28;20472;-71
2021/08/01 10:06:24;;;;;;;8.33;5.60;;;18.30;99.90;;;;;;5065916;28;20466;-69
2021/08/01 10:08:52;;;;;;;6.70;5.73;;;18.20;99.90;;;;;;5068347;28;21221;-70
2021/08/01 10:11:20;;;;;;;7.33;5.90;;;18.00;99.90;;;;;;5035605;28;20821;-70
2021/08/01 10:13:48;;;;;;;6.70;6.10;;;18.10;99.90;;;;;;5037955;28;20523;-70
2021/08/01 10:16:15;;;;;;;7.30;6.50;;;18.10;99.90;;;;;;5043416;28;20440;-71
2021/08/01 10:18:44;;;;;;;6.47;5.87;;;18.30;99.90;;;;;;5048276;28;22938;-71
2021/08/01 10:21:15;;;;;;;6.60;6.00;;;18.50;99.90;;;;;;5048579;28;20538;-70
2021/08/01 10:23:45;;;;;;;8.40;6.77;;;18.80;99.90;;;;;;5046718;28;21128;-71
2021/08/01 10:26:14;;;;;;;6.37;5.40;;;19.20;99.90;;;;;;5040857;28;20449;-69
2021/08/01 10:28:42;;;;;;;9.70;5.03;;;19.60;99.90;;;;;;5050202;28;20573;-69
2021/08/01 10:31:12;;;;;;;7.20;5.43;;;19.80;99.90;;;;;;5048883;28;20459;-70
2021/08/01 10:33:45;;;;;;;5.93;4.70;;;19.90;99.90;;;;;;5054821;28;20455;-70
2021/08/01 10:36:15;;;;;;;5.33;4.83;;;20.20;99.90;;;;;;5056454;28;20531;-70
2021/08/01 10:38:43;;;;;;;6.27;5.67;;;20.40;99.90;;;;;;5046183;28;20904;-70
2021/08/01 10:41:11;;;;;;;7.60;4.93;;;20.60;99.90;;;;;;5050281;28;20840;-69
2021/08/01 10:43:41;;;;;;;6.50;4.87;;;20.60;99.90;;;;;;5048215;28;20495;-69
2021/08/01 10:46:09;;;;;;;5.90;4.23;;;20.70;99.90;;;;;;5040169;28;20439;-70
2021/08/01 10:48:36;;;;;;;6.40;4.70;;;20.70;99.90;;;;;;5040555;28;20459;-69
2021/08/01 10:51:03;;;;;;;5.63;4.50;;;20.80;99.90;;;;;;5043828;28;20484;-69
2021/08/01 10:53:31;;;;;;;4.70;4.10;;;21.00;99.90;;;;;;5043088;28;20438;-68
2021/08/01 10:56:34;;;;;;;5.40;4.47;;;21.00;99.90;;;;;;5045311;28;20942;-68
2021/08/01 10:59:01;;;;;;;6.37;5.00;;;21.20;99.90;;;;;;5046293;28;20542;-68
2021/08/01 11:01:28;;;;;;;5.70;4.00;;;21.20;99.90;;;;;;5052797;28;20443;-68
2021/08/01 11:04:26;;;;;;;5.87;4.57;;;21.60;99.90;;;;;;5047746;28;20480;-68
2021/08/01 11:06:53;;;;;;;7.03;4.47;;;21.90;99.90;;;;;;5049117;28;20448;-68
2021/08/01 11:09:20;;;;;;;5.50;5.00;;;22.30;99.90;;;;;;5041891;28;20504;-68
2021/08/01 11:12:31;;;;;;;6.67;4.30;;;22.50;99.90;;;;;;5039383;28;20466;-68
2021/08/01 11:14:58;;;;;;;4.47;3.77;;;22.50;99.90;;;;;;5047362;28;20482;-68
2021/08/01 11:18:03;;;;;;;6.73;4.00;;;22.40;99.90;;;;;;5042836;28;20442;-68
2021/08/01 11:20:50;;;;;;;5.33;4.20;;;22.00;99.90;;;;;;5040897;28;20503;-67
2021/08/01 11:23:17;;;;;;;5.67;4.00;;;21.50;99.90;;;;;;5046776;28;21099;-69
2021/08/01 11:26:06;;;;;;;5.03;4.27;;;21.60;99.90;;;;;;5041134;28;20455;-68
2021/08/01 11:28:35;;;;;;;3.77;3.40;;;21.70;99.90;;;;;;5046522;28;20480;-68
2021/08/01 11:31:21;;;;;;;4.80;4.30;;;22.20;99.90;;;;;;5043172;28;20437;-69
2021/08/01 11:33:50;;;;;;;6.40;4.33;;;22.70;99.90;;;;;;5032622;28;20488;-69
2021/08/01 11:36:35;;;;;;;6.63;4.87;;;22.40;99.90;;;;;;5039587;28;20477;-69
2021/08/01 11:39:05;;;;;;;6.20;4.23;;;22.30;99.90;;;;;;5049815;28;20475;-69
2021/08/01 11:41:41;;;;;;;5.23;3.97;;;22.50;99.90;;;;;;5051957;28;20845;-68
2021/08/01 11:44:12;;;;;;;6.27;4.07;;;22.90;99.90;;;;;;5051855;28;20522;-68
2021/08/01 11:47:11;;;;;;;6.17;4.00;;;23.60;99.90;;;;;;5051667;28;20458;-69
2021/08/01 11:49:45;;;;;;;5.30;3.33;;;24.30;99.90;;;;;;5051238;28;21077;-69
2021/08/01 11:52:13;;;;;;;5.50;3.60;;;24.80;99.90;;;;;;5055216;28;20447;-69
2021/08/01 11:54:42;;;;;;;4.63;3.57;;;25.00;99.90;;;;;;5058300;28;20450;-70
2021/08/01 11:57:10;;;;;;;5.17;3.60;;;25.10;99.90;;;;;;5056159;28;20478;-69
2021/08/01 11:59:39;;;;;;;3.90;3.47;;;24.50;99.90;;;;;;5058659;28;20461;-69
2021/08/01 12:02:11;;;;;;;4.40;3.67;;;24.30;99.90;;;;;;5052969;28;20527;-70
2021/08/01 12:04:39;;;;;;;3.90;3.10;;;24.40;99.90;;;;;;5051119;28;21005;-70
2021/08/01 12:07:06;;;;;;;4.27;3.87;;;24.60;99.90;;;;;;5051185;28;20443;-69
2021/08/01 12:09:37;;;;;;;6.23;4.20;;;24.70;99.90;;;;;;5050912;28;20495;-70
2021/08/01 12:12:06;;;;;;;5.67;4.40;;;24.90;99.90;;;;;;5051272;28;20448;-69
2021/08/01 12:14:34;;;;;;;5.30;4.03;;;24.70;99.90;;;;;;5051401;28;20961;-71
2021/08/01 12:17:06;;;;;;;4.37;3.87;;;24.30;99.90;;;;;;5051103;28;20902;-70
2021/08/01 12:19:37;;;;;;;5.40;4.00;;;23.50;99.90;;;;;;5047618;28;20472;-70
2021/08/01 12:22:08;;;;;;;4.43;3.87;;;23.30;99.90;;;;;;5038349;28;20457;-70
2021/08/01 12:24:41;;;;;;;4.40;4.00;;;23.10;99.90;;;;;;5045680;28;20477;-69
2021/08/01 12:27:11;;;;;;;5.23;4.03;;;23.00;99.90;;;;;;5051152;28;20537;-71
2021/08/01 12:29:40;;;;;;;6.87;4.33;;;23.20;99.90;;;;;;5055587;28;20529;-70
2021/08/01 12:32:20;;;;;;;4.60;3.37;;;23.40;99.90;;;;;;5052403;28;20488;-70
2021/08/01 12:34:48;;;;;;;6.83;4.60;;;23.60;99.90;;;;;;5047748;28;20535;-70
2021/08/01 12:37:15;;;;;;;4.67;3.77;;;23.60;99.90;;;;;;5045352;28;20445;-70
2021/08/01 12:39:47;;;;;;;5.23;3.87;;;23.40;99.90;;;;;;5036701;28;21022;-71
2021/08/01 12:42:14;;;;;;;6.07;4.37;;;23.60;99.90;;;;;;5031371;28;20467;-70
2021/08/01 12:44:52;;;;;;;3.97;3.57;;;23.70;99.90;;;;;;5037152;28;20566;-69
2021/08/01 12:47:21;;;;;;;3.80;3.33;;;23.70;99.90;;;;;;5033483;28;20949;-70
2021/08/01 12:49:49;;;;;;;4.93;3.60;;;23.40;99.90;;;;;;5027648;28;20547;-70
2021/08/01 12:52:23;;;;;;;5.70;4.20;;;23.50;99.90;;;;;;5036240;28;20528;-72